GMMEGMMN

Guest
Details From GMME - SALE
To GMMN - Casablanca Mohammed V Intl
Flight Number -
Tags decoded
Created
Modified
Stats Distance 64 nm / 119 km
Max Altitude 0 ft / 0 m
Waypoints 3
Social Downloads 2
Likes 0
Share VATSIM

Download

Looking for another format? Having issues loading an existing format? Contact us
Advertisement - Login to hide

Notes

Requested: GMME BISMI BSM4A GMMN Unmatched points: BSM4A

Route

GMME BISMI GMMN

ID Type Via Altitude Latitude Longitude Leg Dist Tot Dist Heading (true) Name
O GMME APT - 0 ft / 0 m 34.05147˚ -6.75152˚ - 0 nm - SALE
BISMI FIX - 0 ft / 0 m 33.64721˚ -6.89351˚ 25 nm 25 nm 196° / 196° -
O GMMN APT - 0 ft / 0 m 33.36747˚ -7.58996˚ 38 nm 64 nm 244° / 244° Casablanca Mohammed V Intl

Altitude Profile

Advertisement - Login to hide

GMME

Details ICAO GMME (RBA)
Name SALE
Region Morocco
Timezone Africa/Casablanca (UTC+0.0)
Stats Elevation 276 ft / 84 m (AMSL)
Location 34.051468° -6.751519°
Runways 1
Magnetic Variation 1.551° W

METAR

GMME 110200Z 20010KT 8000 NSC 14/10 Q1013 NOSIG

Decode

TAF

TAF GMME 102300Z 1100/1206 18016KT 8000 SCT020 SCT100 BECMG 1108/1112 22023G34KT 4000 RA SCT013 BKN020 BKN080 PROB40 TEMPO 1112/1118 3000 TSRA SCT008 BKN015TCU SCT023CB

Decode

Departure Runways

ID Width Length Bearing (true) Bearing (mag) Surface Threshold Offset Overrun Length
04 148 ft / 45 m 11,503 ft / 3,506 m 31.24° 32.79° Asphalt 0 ft / 0 m 197 ft / 60 m
22 148 ft / 45 m 11,503 ft / 3,506 m 211.25° 212.80° Asphalt 0 ft / 0 m 197 ft / 60 m

GMMN

Details ICAO GMMN (CMN)
Name Casablanca Mohammed V Intl
Region Morocco
Timezone Africa/Casablanca (UTC+0.0)
Stats Elevation 656 ft / 200 m (AMSL)
Location 33.367466° -7.589964°
Runways 2
Magnetic Variation 1.818° W

METAR

GMMN 110200Z 21010KT 9999 SCT016 SCT200 11/10 Q1015 NOSIG

Decode

TAF

TAF GMMN 102300Z 1100/1206 20010KT 8000 SCT016 SCT100 TEMPO 1108/1118 24016G27KT 5000 RA BKN015 BKN080 PROB30 TEMPO 1113/1118 TSRA BKN015TCU FEW023CB BECMG 1120/1124 30012KT 6000 RA BKN015 BKN080

Decode

Destination Runways

ID Width Length Bearing (true) Bearing (mag) Surface Threshold Offset Overrun Length
17L 148 ft / 45 m 12,224 ft / 3,726 m 164.03° 165.85° Asphalt 0 ft / 0 m 295 ft / 90 m
17R 148 ft / 45 m 12,196 ft / 3,717 m 164.03° 165.85° Asphalt 0 ft / 0 m 197 ft / 60 m
35L 148 ft / 45 m 12,196 ft / 3,717 m 344.04° 345.86° Asphalt 0 ft / 0 m 180 ft / 55 m
35R 148 ft / 45 m 12,224 ft / 3,726 m 344.04° 345.86° Asphalt 0 ft / 0 m 995 ft / 303 m

Approach Navaids

Runway Type Ident Frequency Range Bearing (true) Bearing (mag) Slope Elevation
35L Localiser INL 110.70 MHz 18 nm / 33 km 344.03° 345.85° - 656 ft / 200 m (AMSL)
35L Glidescope INL 110.70 MHz 10 nm / 19 km 344.03° 345.85° 3.00° 656 ft / 200 m (AMSL)
35L DME INL 110.70 MHz 18 nm / 33 km - - - 656 ft / 200 m (AMSL)
35R Localiser INR 109.90 MHz 18 nm / 33 km 344.04° 345.86° - 656 ft / 200 m (AMSL)
35R Glidescope INR 109.90 MHz 10 nm / 19 km 344.04° 345.86° 2.70° 656 ft / 200 m (AMSL)

Popular Alternatives